sensor_id;sensor_type;location;lat;lon;timestamp;P1;durP1;ratioP1;P2;durP2;ratioP2
9671;SDS011;4874;43.568;27.824;2023-03-14T00:01:15;9.43;;;4.40;;
9671;SDS011;4874;43.568;27.824;2023-03-14T00:03:44;11.23;;;4.53;;
9671;SDS011;4874;43.568;27.824;2023-03-14T00:08:37;8.23;;;4.05;;
9671;SDS011;4874;43.568;27.824;2023-03-14T00:11:11;7.45;;;3.92;;
9671;SDS011;4874;43.568;27.824;2023-03-14T00:13:40;7.47;;;3.88;;
9671;SDS011;4874;43.568;27.824;2023-03-14T00:16:09;7.10;;;3.97;;
9671;SDS011;4874;43.568;27.824;2023-03-14T00:18:39;7.13;;;3.67;;
9671;SDS011;4874;43.568;27.824;2023-03-14T00:21:07;7.95;;;4.00;;
9671;SDS011;4874;43.568;27.824;2023-03-14T00:23:35;7.20;;;4.50;;
9671;SDS011;4874;43.568;27.824;2023-03-14T00:26:04;8.05;;;3.63;;
9671;SDS011;4874;43.568;27.824;2023-03-14T00:28:33;6.68;;;3.83;;
9671;SDS011;4874;43.568;27.824;2023-03-14T00:31:04;6.68;;;3.15;;
9671;SDS011;4874;43.568;27.824;2023-03-14T00:33:32;6.38;;;3.40;;
9671;SDS011;4874;43.568;27.824;2023-03-14T00:36:00;7.72;;;3.38;;
9671;SDS011;4874;43.568;27.824;2023-03-14T00:38:28;7.00;;;3.42;;
9671;SDS011;4874;43.568;27.824;2023-03-14T00:40:56;5.68;;;3.03;;
9671;SDS011;4874;43.568;27.824;2023-03-14T00:43:23;6.57;;;2.97;;
9671;SDS011;4874;43.568;27.824;2023-03-14T00:45:50;7.20;;;2.90;;
9671;SDS011;4874;43.568;27.824;2023-03-14T00:48:19;5.75;;;2.63;;
9671;SDS011;4874;43.568;27.824;2023-03-14T00:50:46;8.20;;;3.13;;
9671;SDS011;4874;43.568;27.824;2023-03-14T00:53:13;5.93;;;2.88;;
9671;SDS011;4874;43.568;27.824;2023-03-14T00:55:41;4.15;;;2.28;;
9671;SDS011;4874;43.568;27.824;2023-03-14T00:58:09;6.13;;;2.80;;
9671;SDS011;4874;43.568;27.824;2023-03-14T01:00:37;5.05;;;2.40;;
9671;SDS011;4874;43.568;27.824;2023-03-14T01:03:04;4.75;;;2.28;;
9671;SDS011;4874;43.568;27.824;2023-03-14T01:05:32;5.80;;;2.58;;
9671;SDS011;4874;43.568;27.824;2023-03-14T01:07:59;8.18;;;2.17;;
9671;SDS011;4874;43.568;27.824;2023-03-14T01:12:53;4.53;;;2.35;;
9671;SDS011;4874;43.568;27.824;2023-03-14T01:17:47;5.60;;;2.42;;
9671;SDS011;4874;43.568;27.824;2023-03-14T01:20:14;10.90;;;3.35;;
9671;SDS011;4874;43.568;27.824;2023-03-14T01:22:41;12.18;;;4.35;;
9671;SDS011;4874;43.568;27.824;2023-03-14T01:25:14;10.55;;;3.45;;
9671;SDS011;4874;43.568;27.824;2023-03-14T01:27:42;7.90;;;3.92;;
9671;SDS011;4874;43.568;27.824;2023-03-14T01:30:09;7.93;;;3.10;;
9671;SDS011;4874;43.568;27.824;2023-03-14T01:32:37;4.75;;;2.72;;
9671;SDS011;4874;43.568;27.824;2023-03-14T01:35:05;8.20;;;2.88;;
9671;SDS011;4874;43.568;27.824;2023-03-14T01:37:32;6.57;;;2.72;;
9671;SDS011;4874;43.568;27.824;2023-03-14T01:39:58;6.10;;;2.92;;
9671;SDS011;4874;43.568;27.824;2023-03-14T01:42:25;6.60;;;3.28;;
9671;SDS011;4874;43.568;27.824;2023-03-14T01:47:26;4.90;;;2.60;;
9671;SDS011;4874;43.568;27.824;2023-03-14T01:49:57;7.30;;;2.80;;
9671;SDS011;4874;43.568;27.824;2023-03-14T01:52:29;6.60;;;3.10;;
9671;SDS011;4874;43.568;27.824;2023-03-14T01:55:14;9.38;;;3.33;;
9671;SDS011;4874;43.568;27.824;2023-03-14T01:57:44;5.63;;;2.72;;
9671;SDS011;4874;43.568;27.824;2023-03-14T02:00:18;6.72;;;3.17;;
9671;SDS011;4874;43.568;27.824;2023-03-14T02:02:51;5.45;;;2.60;;
9671;SDS011;4874;43.568;27.824;2023-03-14T02:05:25;5.63;;;2.72;;
9671;SDS011;4874;43.568;27.824;2023-03-14T02:07:56;13.32;;;5.20;;
9671;SDS011;4874;43.568;27.824;2023-03-14T02:10:27;53.47;;;18.98;;
9671;SDS011;4874;43.568;27.824;2023-03-14T02:12:55;53.65;;;19.95;;
9671;SDS011;4874;43.568;27.824;2023-03-14T02:15:25;41.90;;;15.10;;
9671;SDS011;4874;43.568;27.824;2023-03-14T02:17:52;30.88;;;10.40;;
9671;SDS011;4874;43.568;27.824;2023-03-14T02:23:17;6.32;;;2.63;;
9671;SDS011;4874;43.568;27.824;2023-03-14T02:28:57;10.70;;;3.38;;
9671;SDS011;4874;43.568;27.824;2023-03-14T02:31:24;9.80;;;3.53;;
9671;SDS011;4874;43.568;27.824;2023-03-14T02:33:51;9.65;;;4.28;;
9671;SDS011;4874;43.568;27.824;2023-03-14T02:36:19;10.90;;;4.93;;
9671;SDS011;4874;43.568;27.824;2023-03-14T02:38:51;12.30;;;5.38;;
9671;SDS011;4874;43.568;27.824;2023-03-14T02:41:23;10.00;;;4.68;;
9671;SDS011;4874;43.568;27.824;2023-03-14T02:43:50;11.60;;;4.78;;
9671;SDS011;4874;43.568;27.824;2023-03-14T02:46:18;12.13;;;4.63;;
9671;SDS011;4874;43.568;27.824;2023-03-14T02:48:51;7.53;;;4.05;;
9671;SDS011;4874;43.568;27.824;2023-03-14T02:51:21;8.93;;;4.13;;
9671;SDS011;4874;43.568;27.824;2023-03-14T02:53:49;7.47;;;3.65;;
9671;SDS011;4874;43.568;27.824;2023-03-14T02:56:16;9.82;;;4.43;;
9671;SDS011;4874;43.568;27.824;2023-03-14T02:58:43;7.32;;;4.05;;
9671;SDS011;4874;43.568;27.824;2023-03-14T03:01:10;7.15;;;3.22;;
9671;SDS011;4874;43.568;27.824;2023-03-14T03:06:03;7.65;;;3.53;;
9671;SDS011;4874;43.568;27.824;2023-03-14T03:08:30;8.10;;;3.33;;
9671;SDS011;4874;43.568;27.824;2023-03-14T03:10:57;6.78;;;3.30;;
9671;SDS011;4874;43.568;27.824;2023-03-14T03:13:25;7.95;;;3.55;;
9671;SDS011;4874;43.568;27.824;2023-03-14T03:15:53;9.25;;;3.97;;
9671;SDS011;4874;43.568;27.824;2023-03-14T03:18:20;8.25;;;3.05;;
9671;SDS011;4874;43.568;27.824;2023-03-14T03:20:47;8.68;;;3.38;;
9671;SDS011;4874;43.568;27.824;2023-03-14T03:23:13;10.65;;;3.55;;
9671;SDS011;4874;43.568;27.824;2023-03-14T03:28:07;7.53;;;3.40;;
9671;SDS011;4874;43.568;27.824;2023-03-14T03:30:40;7.25;;;3.58;;
9671;SDS011;4874;43.568;27.824;2023-03-14T03:33:07;7.78;;;3.97;;
9671;SDS011;4874;43.568;27.824;2023-03-14T03:38:01;6.85;;;3.33;;
9671;SDS011;4874;43.568;27.824;2023-03-14T03:40:28;6.88;;;3.40;;
9671;SDS011;4874;43.568;27.824;2023-03-14T03:42:54;5.97;;;3.15;;
9671;SDS011;4874;43.568;27.824;2023-03-14T03:45:21;5.57;;;2.90;;
9671;SDS011;4874;43.568;27.824;2023-03-14T03:47:48;8.65;;;2.97;;
9671;SDS011;4874;43.568;27.824;2023-03-14T03:50:14;6.65;;;3.00;;
9671;SDS011;4874;43.568;27.824;2023-03-14T03:52:41;6.43;;;2.78;;
9671;SDS011;4874;43.568;27.824;2023-03-14T03:55:08;6.45;;;3.13;;
9671;SDS011;4874;43.568;27.824;2023-03-14T04:00:02;7.53;;;2.78;;
9671;SDS011;4874;43.568;27.824;2023-03-14T04:02:31;7.78;;;3.33;;
9671;SDS011;4874;43.568;27.824;2023-03-14T04:07:24;7.72;;;3.08;;
9671;SDS011;4874;43.568;27.824;2023-03-14T04:09:51;6.78;;;2.92;;
9671;SDS011;4874;43.568;27.824;2023-03-14T04:12:18;8.95;;;3.22;;
9671;SDS011;4874;43.568;27.824;2023-03-14T04:14:45;7.10;;;3.50;;
9671;SDS011;4874;43.568;27.824;2023-03-14T04:17:11;8.65;;;4.45;;
9671;SDS011;4874;43.568;27.824;2023-03-14T04:19:39;10.35;;;4.82;;
9671;SDS011;4874;43.568;27.824;2023-03-14T04:22:07;9.60;;;4.90;;
9671;SDS011;4874;43.568;27.824;2023-03-14T04:27:00;10.25;;;4.53;;
9671;SDS011;4874;43.568;27.824;2023-03-14T04:29:27;11.52;;;4.60;;
9671;SDS011;4874;43.568;27.824;2023-03-14T04:31:54;13.00;;;5.07;;
9671;SDS011;4874;43.568;27.824;2023-03-14T04:34:20;16.83;;;5.60;;
9671;SDS011;4874;43.568;27.824;2023-03-14T04:36:47;13.05;;;5.57;;
9671;SDS011;4874;43.568;27.824;2023-03-14T04:39:14;12.65;;;5.40;;
9671;SDS011;4874;43.568;27.824;2023-03-14T04:41:40;10.77;;;4.65;;
9671;SDS011;4874;43.568;27.824;2023-03-14T04:44:07;7.80;;;4.00;;
9671;SDS011;4874;43.568;27.824;2023-03-14T04:46:34;6.90;;;4.35;;
9671;SDS011;4874;43.568;27.824;2023-03-14T04:49:00;7.97;;;3.05;;
9671;SDS011;4874;43.568;27.824;2023-03-14T04:51:27;7.78;;;3.83;;
9671;SDS011;4874;43.568;27.824;2023-03-14T04:53:54;8.70;;;3.53;;
9671;SDS011;4874;43.568;27.824;2023-03-14T04:56:21;7.65;;;4.15;;
9671;SDS011;4874;43.568;27.824;2023-03-14T04:58:47;11.23;;;4.47;;
9671;SDS011;4874;43.568;27.824;2023-03-14T05:01:14;10.25;;;4.95;;
9671;SDS011;4874;43.568;27.824;2023-03-14T05:03:41;14.50;;;4.57;;
9671;SDS011;4874;43.568;27.824;2023-03-14T05:06:08;13.13;;;4.05;;
9671;SDS011;4874;43.568;27.824;2023-03-14T05:11:01;10.48;;;5.05;;
9671;SDS011;4874;43.568;27.824;2023-03-14T05:13:29;10.18;;;3.55;;
9671;SDS011;4874;43.568;27.824;2023-03-14T05:16:02;9.07;;;3.72;;
9671;SDS011;4874;43.568;27.824;2023-03-14T05:18:33;8.43;;;3.58;;
9671;SDS011;4874;43.568;27.824;2023-03-14T05:21:00;6.00;;;3.20;;
9671;SDS011;4874;43.568;27.824;2023-03-14T05:23:27;9.15;;;4.10;;
9671;SDS011;4874;43.568;27.824;2023-03-14T05:28:20;10.13;;;3.97;;
9671;SDS011;4874;43.568;27.824;2023-03-14T05:30:47;6.45;;;2.88;;
9671;SDS011;4874;43.568;27.824;2023-03-14T05:33:14;7.25;;;3.10;;
9671;SDS011;4874;43.568;27.824;2023-03-14T05:35:41;11.63;;;3.58;;
9671;SDS011;4874;43.568;27.824;2023-03-14T05:38:08;6.65;;;3.33;;
9671;SDS011;4874;43.568;27.824;2023-03-14T05:40:35;8.57;;;3.60;;
9671;SDS011;4874;43.568;27.824;2023-03-14T05:43:01;9.20;;;3.17;;
9671;SDS011;4874;43.568;27.824;2023-03-14T05:47:55;8.70;;;3.95;;
9671;SDS011;4874;43.568;27.824;2023-03-14T05:50:21;12.10;;;4.40;;
9671;SDS011;4874;43.568;27.824;2023-03-14T05:52:48;9.30;;;4.50;;
9671;SDS011;4874;43.568;27.824;2023-03-14T05:55:15;13.90;;;5.28;;
9671;SDS011;4874;43.568;27.824;2023-03-14T05:57:42;10.27;;;5.15;;
9671;SDS011;4874;43.568;27.824;2023-03-14T06:00:08;16.33;;;6.22;;
9671;SDS011;4874;43.568;27.824;2023-03-14T06:02:36;7.82;;;3.85;;
9671;SDS011;4874;43.568;27.824;2023-03-14T06:05:02;6.32;;;3.42;;
9671;SDS011;4874;43.568;27.824;2023-03-14T06:07:30;7.47;;;3.17;;
9671;SDS011;4874;43.568;27.824;2023-03-14T06:09:57;5.93;;;2.92;;
9671;SDS011;4874;43.568;27.824;2023-03-14T06:12:24;6.40;;;2.90;;
9671;SDS011;4874;43.568;27.824;2023-03-14T06:17:18;5.43;;;2.30;;
9671;SDS011;4874;43.568;27.824;2023-03-14T06:22:11;5.40;;;2.83;;
9671;SDS011;4874;43.568;27.824;2023-03-14T06:24:38;8.88;;;2.50;;
9671;SDS011;4874;43.568;27.824;2023-03-14T06:29:31;8.65;;;2.50;;
9671;SDS011;4874;43.568;27.824;2023-03-14T06:31:58;10.98;;;3.17;;
9671;SDS011;4874;43.568;27.824;2023-03-14T06:36:51;10.32;;;2.30;;
9671;SDS011;4874;43.568;27.824;2023-03-14T06:39:18;7.82;;;1.70;;
9671;SDS011;4874;43.568;27.824;2023-03-14T06:41:45;6.30;;;1.75;;
9671;SDS011;4874;43.568;27.824;2023-03-14T06:46:38;5.05;;;2.30;;
9671;SDS011;4874;43.568;27.824;2023-03-14T06:49:05;5.20;;;1.77;;
9671;SDS011;4874;43.568;27.824;2023-03-14T06:53:58;10.18;;;2.85;;
9671;SDS011;4874;43.568;27.824;2023-03-14T06:56:25;6.80;;;1.27;;
9671;SDS011;4874;43.568;27.824;2023-03-14T07:01:28;6.25;;;1.50;;
9671;SDS011;4874;43.568;27.824;2023-03-14T07:03:56;4.70;;;1.70;;
9671;SDS011;4874;43.568;27.824;2023-03-14T07:08:50;3.92;;;1.88;;
9671;SDS011;4874;43.568;27.824;2023-03-14T07:11:17;4.47;;;1.23;;
9671;SDS011;4874;43.568;27.824;2023-03-14T07:16:10;4.28;;;1.10;;
9671;SDS011;4874;43.568;27.824;2023-03-14T07:18:37;17.73;;;2.25;;
9671;SDS011;4874;43.568;27.824;2023-03-14T07:23:32;4.60;;;1.33;;
9671;SDS011;4874;43.568;27.824;2023-03-14T07:25:59;8.90;;;1.55;;
9671;SDS011;4874;43.568;27.824;2023-03-14T07:30:53;6.38;;;1.50;;
9671;SDS011;4874;43.568;27.824;2023-03-14T07:33:20;3.72;;;1.30;;
9671;SDS011;4874;43.568;27.824;2023-03-14T07:38:15;3.45;;;1.10;;
9671;SDS011;4874;43.568;27.824;2023-03-14T07:40:42;7.13;;;2.10;;
9671;SDS011;4874;43.568;27.824;2023-03-14T07:43:08;4.13;;;1.10;;
9671;SDS011;4874;43.568;27.824;2023-03-14T07:45:35;3.28;;;0.95;;
9671;SDS011;4874;43.568;27.824;2023-03-14T07:48:07;3.53;;;1.13;;
9671;SDS011;4874;43.568;27.824;2023-03-14T07:50:34;13.30;;;2.95;;
9671;SDS011;4874;43.568;27.824;2023-03-14T07:53:01;4.57;;;1.40;;
9671;SDS011;4874;43.568;27.824;2023-03-14T07:57:54;2.58;;;1.00;;
9671;SDS011;4874;43.568;27.824;2023-03-14T08:00:21;6.70;;;1.40;;
9671;SDS011;4874;43.568;27.824;2023-03-14T08:05:14;2.83;;;1.00;;
9671;SDS011;4874;43.568;27.824;2023-03-14T08:10:08;10.30;;;2.90;;
9671;SDS011;4874;43.568;27.824;2023-03-14T08:12:35;6.07;;;1.70;;
9671;SDS011;4874;43.568;27.824;2023-03-14T08:17:28;3.90;;;1.33;;
9671;SDS011;4874;43.568;27.824;2023-03-14T08:19:55;3.50;;;1.25;;
9671;SDS011;4874;43.568;27.824;2023-03-14T08:24:48;4.15;;;1.67;;
9671;SDS011;4874;43.568;27.824;2023-03-14T08:29:42;6.15;;;1.60;;
9671;SDS011;4874;43.568;27.824;2023-03-14T08:32:08;4.80;;;1.40;;
9671;SDS011;4874;43.568;27.824;2023-03-14T08:34:35;11.73;;;1.73;;
9671;SDS011;4874;43.568;27.824;2023-03-14T08:37:03;4.30;;;1.33;;
9671;SDS011;4874;43.568;27.824;2023-03-14T08:39:44;8.30;;;1.52;;
9671;SDS011;4874;43.568;27.824;2023-03-14T08:44:38;6.63;;;1.35;;
9671;SDS011;4874;43.568;27.824;2023-03-14T08:47:05;15.18;;;2.25;;
9671;SDS011;4874;43.568;27.824;2023-03-14T08:49:32;15.90;;;2.47;;
9671;SDS011;4874;43.568;27.824;2023-03-14T08:51:58;4.78;;;1.55;;
9671;SDS011;4874;43.568;27.824;2023-03-14T08:54:27;4.53;;;1.38;;
9671;SDS011;4874;43.568;27.824;2023-03-14T08:56:54;9.23;;;1.70;;
9671;SDS011;4874;43.568;27.824;2023-03-14T08:59:20;19.42;;;2.15;;
9671;SDS011;4874;43.568;27.824;2023-03-14T09:01:47;6.00;;;1.30;;
9671;SDS011;4874;43.568;27.824;2023-03-14T09:04:14;14.32;;;5.35;;
9671;SDS011;4874;43.568;27.824;2023-03-14T09:06:41;8.65;;;1.30;;
9671;SDS011;4874;43.568;27.824;2023-03-14T09:09:08;4.20;;;0.80;;
9671;SDS011;4874;43.568;27.824;2023-03-14T09:11:35;13.18;;;1.88;;
9671;SDS011;4874;43.568;27.824;2023-03-14T09:14:02;4.25;;;1.00;;
9671;SDS011;4874;43.568;27.824;2023-03-14T09:16:29;5.00;;;1.23;;
9671;SDS011;4874;43.568;27.824;2023-03-14T09:18:55;1.65;;;0.63;;
9671;SDS011;4874;43.568;27.824;2023-03-14T09:21:26;2.55;;;0.52;;
9671;SDS011;4874;43.568;27.824;2023-03-14T09:23:53;1.38;;;0.60;;
9671;SDS011;4874;43.568;27.824;2023-03-14T09:28:47;1.85;;;0.75;;
9671;SDS011;4874;43.568;27.824;2023-03-14T09:33:40;1.42;;;0.50;;
9671;SDS011;4874;43.568;27.824;2023-03-14T09:36:07;1.00;;;0.52;;
9671;SDS011;4874;43.568;27.824;2023-03-14T09:38:34;1.20;;;0.60;;
9671;SDS011;4874;43.568;27.824;2023-03-14T09:43:29;1.20;;;0.70;;
9671;SDS011;4874;43.568;27.824;2023-03-14T09:46:00;1.85;;;0.70;;
9671;SDS011;4874;43.568;27.824;2023-03-14T09:48:29;7.53;;;4.03;;
9671;SDS011;4874;43.568;27.824;2023-03-14T09:50:59;2.13;;;0.70;;
9671;SDS011;4874;43.568;27.824;2023-03-14T09:53:41;3.88;;;0.98;;
9671;SDS011;4874;43.568;27.824;2023-03-14T09:56:15;2.80;;;0.88;;
9671;SDS011;4874;43.568;27.824;2023-03-14T09:58:50;1.40;;;0.57;;
9671;SDS011;4874;43.568;27.824;2023-03-14T10:01:28;5.25;;;0.77;;
9671;SDS011;4874;43.568;27.824;2023-03-14T10:06:30;2.42;;;1.15;;
9671;SDS011;4874;43.568;27.824;2023-03-14T10:08:57;3.00;;;1.00;;
9671;SDS011;4874;43.568;27.824;2023-03-14T10:11:24;6.50;;;1.15;;
9671;SDS011;4874;43.568;27.824;2023-03-14T10:14:02;3.65;;;1.23;;
9671;SDS011;4874;43.568;27.824;2023-03-14T10:16:43;4.60;;;0.80;;
9671;SDS011;4874;43.568;27.824;2023-03-14T10:19:14;2.92;;;0.90;;
9671;SDS011;4874;43.568;27.824;2023-03-14T10:21:52;2.50;;;0.75;;
9671;SDS011;4874;43.568;27.824;2023-03-14T10:26:53;2.35;;;0.70;;
9671;SDS011;4874;43.568;27.824;2023-03-14T10:29:24;2.53;;;0.95;;
9671;SDS011;4874;43.568;27.824;2023-03-14T10:31:56;1.05;;;0.52;;
9671;SDS011;4874;43.568;27.824;2023-03-14T10:34:31;2.33;;;0.70;;
9671;SDS011;4874;43.568;27.824;2023-03-14T10:37:16;1.85;;;0.60;;
9671;SDS011;4874;43.568;27.824;2023-03-14T10:39:48;1.65;;;0.60;;
9671;SDS011;4874;43.568;27.824;2023-03-14T10:42:24;1.40;;;0.55;;
9671;SDS011;4874;43.568;27.824;2023-03-14T10:45:05;3.88;;;0.82;;
9671;SDS011;4874;43.568;27.824;2023-03-14T10:47:49;2.47;;;0.55;;
9671;SDS011;4874;43.568;27.824;2023-03-14T10:52:54;3.85;;;1.20;;
9671;SDS011;4874;43.568;27.824;2023-03-14T10:55:28;1.80;;;0.77;;
9671;SDS011;4874;43.568;27.824;2023-03-14T10:58:16;3.50;;;1.00;;
9671;SDS011;4874;43.568;27.824;2023-03-14T11:00:49;1.77;;;0.85;;
9671;SDS011;4874;43.568;27.824;2023-03-14T11:03:37;3.30;;;1.55;;
9671;SDS011;4874;43.568;27.824;2023-03-14T11:11:13;4.35;;;0.95;;
9671;SDS011;4874;43.568;27.824;2023-03-14T11:18:58;3.38;;;0.82;;
9671;SDS011;4874;43.568;27.824;2023-03-14T11:21:54;2.92;;;0.75;;
9671;SDS011;4874;43.568;27.824;2023-03-14T11:28:04;10.13;;;1.10;;
9671;SDS011;4874;43.568;27.824;2023-03-14T11:33:13;1.90;;;0.73;;
9671;SDS011;4874;43.568;27.824;2023-03-14T11:38:32;6.53;;;1.10;;
9671;SDS011;4874;43.568;27.824;2023-03-14T11:41:04;6.40;;;1.30;;
9671;SDS011;4874;43.568;27.824;2023-03-14T11:43:40;2.08;;;0.80;;
9671;SDS011;4874;43.568;27.824;2023-03-14T11:46:14;12.82;;;1.55;;
9671;SDS011;4874;43.568;27.824;2023-03-14T11:49:03;2.40;;;0.50;;
9671;SDS011;4874;43.568;27.824;2023-03-14T11:51:38;1.25;;;0.47;;
9671;SDS011;4874;43.568;27.824;2023-03-14T11:54:12;13.85;;;1.25;;
9671;SDS011;4874;43.568;27.824;2023-03-14T11:59:23;5.25;;;0.80;;
9671;SDS011;4874;43.568;27.824;2023-03-14T12:02:03;4.35;;;1.15;;
9671;SDS011;4874;43.568;27.824;2023-03-14T12:10:39;1.13;;;0.47;;
9671;SDS011;4874;43.568;27.824;2023-03-14T12:13:09;6.35;;;1.02;;
9671;SDS011;4874;43.568;27.824;2023-03-14T12:15:39;11.73;;;1.60;;
9671;SDS011;4874;43.568;27.824;2023-03-14T12:18:20;7.38;;;1.02;;
9671;SDS011;4874;43.568;27.824;2023-03-14T12:20:53;4.38;;;0.85;;
9671;SDS011;4874;43.568;27.824;2023-03-14T12:23:23;4.18;;;0.80;;
9671;SDS011;4874;43.568;27.824;2023-03-14T12:28:37;1.42;;;0.68;;
9671;SDS011;4874;43.568;27.824;2023-03-14T12:42:17;1.85;;;0.73;;
9671;SDS011;4874;43.568;27.824;2023-03-14T12:56:19;2.60;;;0.80;;
9671;SDS011;4874;43.568;27.824;2023-03-14T12:58:55;2.03;;;0.75;;
9671;SDS011;4874;43.568;27.824;2023-03-14T13:01:34;2.42;;;0.82;;
9671;SDS011;4874;43.568;27.824;2023-03-14T13:04:07;3.38;;;0.90;;
9671;SDS011;4874;43.568;27.824;2023-03-14T13:12:02;1.83;;;0.93;;
9671;SDS011;4874;43.568;27.824;2023-03-14T13:14:40;6.70;;;1.90;;
9671;SDS011;4874;43.568;27.824;2023-03-14T13:17:11;10.18;;;3.15;;
9671;SDS011;4874;43.568;27.824;2023-03-14T13:20:00;2.75;;;1.15;;
9671;SDS011;4874;43.568;27.824;2023-03-14T13:22:36;9.98;;;3.50;;
9671;SDS011;4874;43.568;27.824;2023-03-14T13:25:09;4.47;;;1.85;;
9671;SDS011;4874;43.568;27.824;2023-03-14T13:27:37;4.20;;;1.58;;
9671;SDS011;4874;43.568;27.824;2023-03-14T13:30:17;3.47;;;1.58;;
9671;SDS011;4874;43.568;27.824;2023-03-14T13:32:47;9.25;;;4.18;;
9671;SDS011;4874;43.568;27.824;2023-03-14T13:35:16;5.68;;;1.48;;
9671;SDS011;4874;43.568;27.824;2023-03-14T13:37:51;4.00;;;1.38;;
9671;SDS011;4874;43.568;27.824;2023-03-14T13:40:35;4.75;;;1.40;;
9671;SDS011;4874;43.568;27.824;2023-03-14T13:45:40;2.50;;;1.02;;
9671;SDS011;4874;43.568;27.824;2023-03-14T13:48:12;5.07;;;1.83;;
9671;SDS011;4874;43.568;27.824;2023-03-14T13:51:00;8.38;;;2.28;;
9671;SDS011;4874;43.568;27.824;2023-03-14T13:53:31;4.55;;;1.48;;
9671;SDS011;4874;43.568;27.824;2023-03-14T13:56:01;4.45;;;1.08;;
9671;SDS011;4874;43.568;27.824;2023-03-14T13:58:30;4.30;;;1.40;;
9671;SDS011;4874;43.568;27.824;2023-03-14T14:01:05;4.93;;;1.48;;
9671;SDS011;4874;43.568;27.824;2023-03-14T14:03:44;5.80;;;1.75;;
9671;SDS011;4874;43.568;27.824;2023-03-14T14:09:17;9.90;;;1.70;;
9671;SDS011;4874;43.568;27.824;2023-03-14T14:17:12;4.63;;;1.30;;
9671;SDS011;4874;43.568;27.824;2023-03-14T14:19:41;5.90;;;1.33;;
9671;SDS011;4874;43.568;27.824;2023-03-14T14:22:10;5.22;;;0.95;;
9671;SDS011;4874;43.568;27.824;2023-03-14T14:24:38;7.72;;;2.20;;
9671;SDS011;4874;43.568;27.824;2023-03-14T14:29:44;9.00;;;2.38;;
9671;SDS011;4874;43.568;27.824;2023-03-14T14:32:34;4.68;;;1.77;;
9671;SDS011;4874;43.568;27.824;2023-03-14T14:35:04;1.88;;;0.73;;
9671;SDS011;4874;43.568;27.824;2023-03-14T14:37:34;2.47;;;0.85;;
9671;SDS011;4874;43.568;27.824;2023-03-14T14:40:08;2.22;;;1.00;;
9671;SDS011;4874;43.568;27.824;2023-03-14T14:42:42;5.82;;;1.10;;
9671;SDS011;4874;43.568;27.824;2023-03-14T14:47:55;2.92;;;0.90;;
9671;SDS011;4874;43.568;27.824;2023-03-14T14:50:37;1.73;;;1.00;;
9671;SDS011;4874;43.568;27.824;2023-03-14T14:53:19;2.65;;;1.10;;
9671;SDS011;4874;43.568;27.824;2023-03-14T14:55:53;3.90;;;1.05;;
9671;SDS011;4874;43.568;27.824;2023-03-14T14:58:26;6.18;;;1.30;;
9671;SDS011;4874;43.568;27.824;2023-03-14T15:01:05;1.85;;;0.80;;
9671;SDS011;4874;43.568;27.824;2023-03-14T15:03:33;6.70;;;2.05;;
9671;SDS011;4874;43.568;27.824;2023-03-14T15:06:02;4.18;;;1.80;;
9671;SDS011;4874;43.568;27.824;2023-03-14T15:08:29;3.67;;;1.42;;
9671;SDS011;4874;43.568;27.824;2023-03-14T15:10:58;7.43;;;2.05;;
9671;SDS011;4874;43.568;27.824;2023-03-14T15:13:25;8.55;;;2.67;;
9671;SDS011;4874;43.568;27.824;2023-03-14T15:18:25;7.05;;;2.38;;
9671;SDS011;4874;43.568;27.824;2023-03-14T15:20:56;6.22;;;2.10;;
9671;SDS011;4874;43.568;27.824;2023-03-14T15:23:23;5.85;;;2.10;;
9671;SDS011;4874;43.568;27.824;2023-03-14T15:25:50;9.18;;;3.05;;
9671;SDS011;4874;43.568;27.824;2023-03-14T15:28:25;4.20;;;2.03;;
9671;SDS011;4874;43.568;27.824;2023-03-14T15:30:56;4.90;;;2.20;;
9671;SDS011;4874;43.568;27.824;2023-03-14T15:33:24;3.30;;;1.40;;
9671;SDS011;4874;43.568;27.824;2023-03-14T15:35:52;4.38;;;2.00;;
9671;SDS011;4874;43.568;27.824;2023-03-14T15:40:49;5.30;;;1.98;;
9671;SDS011;4874;43.568;27.824;2023-03-14T15:43:16;4.72;;;1.52;;
9671;SDS011;4874;43.568;27.824;2023-03-14T15:45:44;2.67;;;1.30;;
9671;SDS011;4874;43.568;27.824;2023-03-14T15:48:15;6.85;;;2.25;;
9671;SDS011;4874;43.568;27.824;2023-03-14T15:50:47;6.47;;;1.73;;
9671;SDS011;4874;43.568;27.824;2023-03-14T15:53:14;5.47;;;1.63;;
9671;SDS011;4874;43.568;27.824;2023-03-14T15:55:41;3.50;;;1.70;;
9671;SDS011;4874;43.568;27.824;2023-03-14T15:58:15;2.75;;;1.30;;
9671;SDS011;4874;43.568;27.824;2023-03-14T16:00:46;3.83;;;1.90;;
9671;SDS011;4874;43.568;27.824;2023-03-14T16:03:13;8.43;;;2.40;;
9671;SDS011;4874;43.568;27.824;2023-03-14T16:05:40;4.82;;;2.05;;
9671;SDS011;4874;43.568;27.824;2023-03-14T16:10:33;4.38;;;1.88;;
9671;SDS011;4874;43.568;27.824;2023-03-14T16:13:00;4.65;;;1.88;;
9671;SDS011;4874;43.568;27.824;2023-03-14T16:15:27;7.63;;;1.77;;
9671;SDS011;4874;43.568;27.824;2023-03-14T16:20:21;5.50;;;1.65;;
9671;SDS011;4874;43.568;27.824;2023-03-14T16:22:49;4.43;;;2.17;;
9671;SDS011;4874;43.568;27.824;2023-03-14T16:30:12;6.97;;;2.28;;
9671;SDS011;4874;43.568;27.824;2023-03-14T16:32:39;5.90;;;2.00;;
9671;SDS011;4874;43.568;27.824;2023-03-14T16:37:33;6.30;;;1.98;;
9671;SDS011;4874;43.568;27.824;2023-03-14T16:42:37;4.97;;;2.38;;
9671;SDS011;4874;43.568;27.824;2023-03-14T16:45:24;4.45;;;2.13;;
9671;SDS011;4874;43.568;27.824;2023-03-14T16:50:17;4.75;;;2.20;;
9671;SDS011;4874;43.568;27.824;2023-03-14T16:52:44;2.60;;;1.67;;
9671;SDS011;4874;43.568;27.824;2023-03-14T16:55:13;6.80;;;2.60;;
9671;SDS011;4874;43.568;27.824;2023-03-14T16:57:39;6.32;;;2.60;;
9671;SDS011;4874;43.568;27.824;2023-03-14T17:00:07;5.50;;;3.20;;
9671;SDS011;4874;43.568;27.824;2023-03-14T17:02:37;12.05;;;4.82;;
9671;SDS011;4874;43.568;27.824;2023-03-14T17:05:04;10.38;;;3.97;;
9671;SDS011;4874;43.568;27.824;2023-03-14T17:07:31;10.95;;;4.43;;
9671;SDS011;4874;43.568;27.824;2023-03-14T17:09:58;11.23;;;3.92;;
9671;SDS011;4874;43.568;27.824;2023-03-14T17:12:24;7.13;;;3.42;;
9671;SDS011;4874;43.568;27.824;2023-03-14T17:14:51;16.38;;;4.15;;
9671;SDS011;4874;43.568;27.824;2023-03-14T17:17:18;8.65;;;4.05;;
9671;SDS011;4874;43.568;27.824;2023-03-14T17:22:12;12.38;;;4.15;;
9671;SDS011;4874;43.568;27.824;2023-03-14T17:24:49;14.82;;;5.13;;
9671;SDS011;4874;43.568;27.824;2023-03-14T17:27:15;20.05;;;8.18;;
9671;SDS011;4874;43.568;27.824;2023-03-14T17:29:46;17.52;;;6.20;;
9671;SDS011;4874;43.568;27.824;2023-03-14T17:32:14;29.58;;;10.38;;
9671;SDS011;4874;43.568;27.824;2023-03-14T17:34:41;14.32;;;5.63;;
9671;SDS011;4874;43.568;27.824;2023-03-14T17:37:08;12.70;;;5.68;;
9671;SDS011;4874;43.568;27.824;2023-03-14T17:39:35;17.80;;;7.13;;
9671;SDS011;4874;43.568;27.824;2023-03-14T17:42:04;10.85;;;4.90;;
9671;SDS011;4874;43.568;27.824;2023-03-14T17:44:31;11.57;;;5.18;;
9671;SDS011;4874;43.568;27.824;2023-03-14T17:49:25;7.45;;;3.20;;
9671;SDS011;4874;43.568;27.824;2023-03-14T17:51:54;11.30;;;3.88;;
9671;SDS011;4874;43.568;27.824;2023-03-14T17:54:21;12.00;;;4.93;;
9671;SDS011;4874;43.568;27.824;2023-03-14T17:56:47;9.38;;;3.47;;
9671;SDS011;4874;43.568;27.824;2023-03-14T17:59:14;9.98;;;3.50;;
9671;SDS011;4874;43.568;27.824;2023-03-14T18:04:08;10.63;;;3.83;;
9671;SDS011;4874;43.568;27.824;2023-03-14T18:06:35;14.23;;;4.22;;
9671;SDS011;4874;43.568;27.824;2023-03-14T18:11:30;9.63;;;2.80;;
9671;SDS011;4874;43.568;27.824;2023-03-14T18:13:57;8.20;;;3.05;;
9671;SDS011;4874;43.568;27.824;2023-03-14T18:16:26;9.60;;;3.60;;
9671;SDS011;4874;43.568;27.824;2023-03-14T18:18:53;7.25;;;3.35;;
9671;SDS011;4874;43.568;27.824;2023-03-14T18:21:22;8.70;;;3.42;;
9671;SDS011;4874;43.568;27.824;2023-03-14T18:26:16;7.07;;;3.25;;
9671;SDS011;4874;43.568;27.824;2023-03-14T18:28:43;13.32;;;4.95;;
9671;SDS011;4874;43.568;27.824;2023-03-14T18:31:11;8.57;;;3.58;;
9671;SDS011;4874;43.568;27.824;2023-03-14T18:33:42;8.88;;;3.08;;
9671;SDS011;4874;43.568;27.824;2023-03-14T18:36:11;13.40;;;4.18;;
9671;SDS011;4874;43.568;27.824;2023-03-14T18:38:38;8.52;;;2.88;;
9671;SDS011;4874;43.568;27.824;2023-03-14T18:41:09;7.60;;;2.78;;